Time;durP1;ratioP1;P1;durP2;ratioP2;P2;SDS_P1;SDS_P2;PMS_P1;PMS_P2;Temp;Humidity;BMP_temperature;BMP_pressure;BME280_temperature;BME280_humidity;BME280_pressure;Samples;Min_cycle;Max_cycle;Signal;HPM_P1;HPM_P2
2024/03/26 00:00:48;;;;;;;14.57;6.03;;;7.10;99.90;;;;;;5034568;28;20040;-83
2024/03/26 00:03:13;;;;;;;14.82;4.75;;;7.10;99.90;;;;;;5016561;28;20041;-83
2024/03/26 00:05:39;;;;;;;17.65;5.05;;;7.10;99.90;;;;;;5016751;28;20025;-83
2024/03/26 00:08:05;;;;;;;12.73;4.40;;;7.00;99.90;;;;;;5016989;28;20028;-80
2024/03/26 00:10:31;;;;;;;21.15;6.13;;;7.00;99.90;;;;;;5034546;28;20014;-82
2024/03/26 00:12:57;;;;;;;18.10;6.60;;;7.00;99.90;;;;;;5016972;28;20457;-82
2024/03/26 00:15:22;;;;;;;19.67;6.50;;;7.00;99.90;;;;;;5017151;28;20022;-83
2024/03/26 00:17:48;;;;;;;23.40;7.55;;;7.00;99.90;;;;;;5017196;28;20281;-82
2024/03/26 00:20:14;;;;;;;18.70;7.05;;;7.00;99.90;;;;;;5016719;28;20094;-83
2024/03/26 00:22:40;;;;;;;17.25;6.93;;;6.90;99.90;;;;;;5015789;28;20021;-83
2024/03/26 00:25:06;;;;;;;16.65;6.00;;;6.90;99.90;;;;;;5033117;28;20029;-84
2024/03/26 00:27:31;;;;;;;19.83;6.40;;;6.90;99.90;;;;;;5033647;28;20029;-81
2024/03/26 00:29:57;;;;;;;23.52;7.20;;;6.90;99.90;;;;;;5034204;28;20040;-83
2024/03/26 00:32:23;;;;;;;23.85;7.55;;;6.90;99.90;;;;;;5016230;28;20080;-81
2024/03/26 00:34:49;;;;;;;25.23;8.27;;;6.80;99.90;;;;;;5033854;28;20025;-82
2024/03/26 00:37:14;;;;;;;24.85;7.07;;;6.80;99.90;;;;;;5015771;28;20041;-81
2024/03/26 00:39:40;;;;;;;19.23;7.57;;;6.80;99.90;;;;;;5016124;28;20013;-82
2024/03/26 00:42:06;;;;;;;17.95;6.47;;;6.80;99.90;;;;;;5035422;28;20288;-83
2024/03/26 00:44:31;;;;;;;23.80;7.70;;;6.80;99.90;;;;;;5016151;28;20037;-81
2024/03/26 00:46:57;;;;;;;19.50;7.30;;;6.80;99.90;;;;;;5034023;28;20021;-82
2024/03/26 00:49:23;;;;;;;19.08;6.82;;;6.70;99.90;;;;;;5015805;28;20037;-82
2024/03/26 00:51:48;;;;;;;24.20;8.40;;;6.70;99.90;;;;;;5015646;28;20142;-81
2024/03/26 00:54:14;;;;;;;19.38;6.82;;;6.70;99.90;;;;;;5015509;28;20056;-81
2024/03/26 00:56:41;;;;;;;25.27;7.30;;;6.70;99.90;;;;;;5015503;28;20021;-81
2024/03/26 00:59:07;;;;;;;24.42;7.75;;;6.60;99.90;;;;;;5012767;28;20565;-81
2024/03/26 01:01:33;;;;;;;20.50;8.13;;;6.60;99.90;;;;;;5033465;28;20104;-82
2024/03/26 01:03:58;;;;;;;23.83;8.45;;;6.60;99.90;;;;;;5015241;28;20028;-81
2024/03/26 01:06:24;;;;;;;19.88;8.18;;;6.60;99.90;;;;;;5015596;28;20060;-82
2024/03/26 01:08:50;;;;;;;26.80;10.02;;;6.60;99.90;;;;;;5015873;28;20025;-81
2024/03/26 01:11:16;;;;;;;23.15;8.73;;;6.50;99.90;;;;;;5033942;28;20389;-81
2024/03/26 01:13:42;;;;;;;19.42;7.50;;;6.50;99.90;;;;;;5033826;28;20033;-82
2024/03/26 01:16:08;;;;;;;22.23;7.88;;;6.50;99.90;;;;;;5015637;28;20048;-82
2024/03/26 01:18:34;;;;;;;22.63;7.72;;;6.50;99.90;;;;;;5015648;28;20500;-81
2024/03/26 01:20:59;;;;;;;29.05;9.95;;;6.50;99.90;;;;;;5014747;28;20172;-83
2024/03/26 01:23:25;;;;;;;23.85;9.30;;;6.50;99.90;;;;;;5015010;28;20029;-81
2024/03/26 01:25:51;;;;;;;22.45;9.05;;;6.50;99.90;;;;;;5015136;28;20025;-84
2024/03/26 01:28:16;;;;;;;23.50;9.20;;;6.40;99.90;;;;;;5032695;28;20134;-82
2024/03/26 01:30:42;;;;;;;24.23;9.35;;;6.40;99.90;;;;;;5033081;28;20032;-80
2024/03/26 01:33:08;;;;;;;30.98;9.68;;;6.40;99.90;;;;;;5014923;28;20017;-81
2024/03/26 01:35:34;;;;;;;28.17;8.68;;;6.40;99.90;;;;;;5014880;28;20033;-81
2024/03/26 01:38:00;;;;;;;28.88;11.40;;;6.30;99.90;;;;;;5032483;28;20079;-81
2024/03/26 01:40:25;;;;;;;24.98;9.05;;;6.30;99.90;;;;;;5014847;28;20025;-83
2024/03/26 01:42:51;;;;;;;26.67;9.52;;;6.30;99.90;;;;;;5014658;28;20116;-83
2024/03/26 01:45:17;;;;;;;21.52;8.63;;;6.30;99.90;;;;;;5015084;28;20515;-81
2024/03/26 01:47:44;;;;;;;18.70;7.93;;;6.30;99.90;;;;;;5032848;28;20024;-81
2024/03/26 01:50:12;;;;;;;21.05;9.73;;;6.20;99.90;;;;;;5014922;28;20453;-81
2024/03/26 01:52:38;;;;;;;24.60;9.80;;;6.20;99.90;;;;;;5015199;28;20029;-85
2024/03/26 01:55:06;;;;;;;20.65;8.93;;;6.20;99.90;;;;;;5014907;28;20104;-81
2024/03/26 01:57:33;;;;;;;22.25;8.95;;;6.20;99.90;;;;;;5015032;28;20113;-81
2024/03/26 01:59:59;;;;;;;20.67;7.70;;;6.20;99.90;;;;;;5016032;28;20029;-81
2024/03/26 02:02:25;;;;;;;22.92;8.32;;;6.20;99.90;;;;;;5033961;28;20022;-82
2024/03/26 02:04:51;;;;;;;18.98;8.75;;;6.20;99.90;;;;;;5033736;28;20369;-81
2024/03/26 02:07:18;;;;;;;29.60;9.63;;;6.20;99.90;;;;;;5015427;28;20112;-82
2024/03/26 02:09:47;;;;;;;22.50;9.77;;;6.20;99.90;;;;;;5033417;28;20033;-80
2024/03/26 02:12:13;;;;;;;20.42;9.02;;;6.10;99.90;;;;;;5016022;28;20080;-82
2024/03/26 02:14:38;;;;;;;21.13;7.35;;;6.10;99.90;;;;;;5017981;28;20044;-82
2024/03/26 02:17:04;;;;;;;25.13;10.98;;;6.10;99.90;;;;;;5020343;28;20351;-82
2024/03/26 02:19:30;;;;;;;18.30;8.02;;;6.10;99.90;;;;;;5035563;28;20014;-82
2024/03/26 02:21:56;;;;;;;24.15;9.52;;;6.10;99.90;;;;;;5000269;28;20056;-82
2024/03/26 02:24:21;;;;;;;23.45;9.68;;;6.10;99.90;;;;;;4999510;28;20061;-81
2024/03/26 02:26:47;;;;;;;17.27;7.57;;;6.00;99.90;;;;;;5016547;28;20014;-84
2024/03/26 02:29:13;;;;;;;29.15;9.45;;;6.00;99.90;;;;;;5016566;28;20030;-84
2024/03/26 02:31:39;;;;;;;20.90;9.02;;;6.00;99.90;;;;;;5016873;28;20521;-82
2024/03/26 02:34:04;;;;;;;29.23;9.95;;;6.00;99.90;;;;;;4998989;28;20014;-82
2024/03/26 02:36:30;;;;;;;22.70;9.73;;;6.00;99.90;;;;;;5016022;28;20476;-83
2024/03/26 02:38:56;;;;;;;23.42;10.15;;;6.00;99.90;;;;;;5016159;28;20500;-83
2024/03/26 02:41:22;;;;;;;24.42;9.45;;;6.00;99.90;;;;;;4998762;28;20528;-82
2024/03/26 02:43:48;;;;;;;19.20;9.80;;;6.00;99.90;;;;;;5016352;28;20018;-81
2024/03/26 02:46:14;;;;;;;19.17;8.38;;;5.90;99.90;;;;;;4999042;28;20057;-82
2024/03/26 02:48:39;;;;;;;25.67;10.27;;;5.90;99.90;;;;;;4999501;28;20053;-81
2024/03/26 02:51:05;;;;;;;16.83;7.55;;;5.90;99.90;;;;;;4999023;28;20117;-84
2024/03/26 02:53:31;;;;;;;26.45;10.82;;;5.90;99.90;;;;;;5016051;28;20014;-81
2024/03/26 02:55:56;;;;;;;33.55;11.45;;;5.90;99.90;;;;;;5016072;28;20022;-83
2024/03/26 02:58:22;;;;;;;27.00;10.23;;;5.90;99.90;;;;;;4998623;28;20034;-83
2024/03/26 03:00:48;;;;;;;23.23;10.52;;;5.90;99.90;;;;;;4998605;28;20029;-80
2024/03/26 03:03:14;;;;;;;30.92;11.60;;;5.90;99.90;;;;;;5015872;28;20033;-84
2024/03/26 03:05:40;;;;;;;33.50;13.20;;;5.90;99.90;;;;;;5015432;28;20029;-80
2024/03/26 03:08:06;;;;;;;35.50;13.55;;;5.90;99.90;;;;;;4998008;28;20045;-81
2024/03/26 03:10:32;;;;;;;34.97;12.30;;;5.90;99.90;;;;;;5015474;28;20030;-82
2024/03/26 03:12:58;;;;;;;36.10;13.02;;;5.90;99.90;;;;;;4998006;28;20273;-83
2024/03/26 03:15:24;;;;;;;18.30;8.57;;;5.90;99.90;;;;;;4998546;28;20100;-82
2024/03/26 03:17:49;;;;;;;27.27;11.63;;;5.90;99.90;;;;;;5013101;28;20029;-82
2024/03/26 03:20:15;;;;;;;25.38;10.13;;;5.80;99.90;;;;;;5015698;28;20078;-83
2024/03/26 03:22:44;;;;;;;31.05;11.40;;;5.80;99.90;;;;;;5022561;28;20072;-82
2024/03/26 03:25:10;;;;;;;26.92;11.43;;;5.70;99.90;;;;;;4998159;28;20018;-82
2024/03/26 03:27:36;;;;;;;23.63;9.48;;;5.70;99.90;;;;;;5019564;28;20539;-83
2024/03/26 03:30:02;;;;;;;27.58;11.82;;;5.70;99.90;;;;;;5018472;28;20022;-82
2024/03/26 03:32:28;;;;;;;29.67;12.38;;;5.70;99.90;;;;;;5019797;28;20025;-84
2024/03/26 03:34:54;;;;;;;35.05;13.05;;;5.70;99.90;;;;;;5000314;28;20017;-84
2024/03/26 03:37:20;;;;;;;32.05;12.40;;;5.70;99.90;;;;;;5016931;28;20025;-82
2024/03/26 03:39:46;;;;;;;35.45;15.10;;;5.70;99.90;;;;;;5016333;28;20037;-83
2024/03/26 03:42:11;;;;;;;23.77;10.13;;;5.70;99.90;;;;;;4997922;28;20026;-84
2024/03/26 03:44:37;;;;;;;34.72;13.80;;;5.60;99.90;;;;;;5016673;28;20029;-84
2024/03/26 03:47:03;;;;;;;34.47;12.38;;;5.60;99.90;;;;;;4998440;28;20021;-81
2024/03/26 03:49:30;;;;;;;31.63;12.65;;;5.60;99.90;;;;;;4997361;28;20026;-84
2024/03/26 03:51:56;;;;;;;22.98;10.27;;;5.60;99.90;;;;;;5014865;28;20030;-83
2024/03/26 03:54:22;;;;;;;31.83;11.82;;;5.60;99.90;;;;;;4997542;28;20026;-81
2024/03/26 03:56:48;;;;;;;31.20;13.32;;;5.60;99.90;;;;;;4997161;28;20351;-81
2024/03/26 03:59:14;;;;;;;19.55;10.15;;;5.60;99.90;;;;;;5014829;28;20041;-81
2024/03/26 04:01:40;;;;;;;30.48;12.95;;;5.60;99.90;;;;;;5015047;28;20022;-81
2024/03/26 04:04:05;;;;;;;23.35;11.15;;;5.60;99.90;;;;;;5014257;28;20028;-81
2024/03/26 04:06:31;;;;;;;27.20;11.70;;;5.60;99.90;;;;;;5014397;28;20370;-81
2024/03/26 04:08:57;;;;;;;29.63;12.85;;;5.60;99.90;;;;;;4997229;28;20026;-84
2024/03/26 04:11:22;;;;;;;19.58;9.35;;;5.60;99.90;;;;;;4996879;28;20037;-81
2024/03/26 04:13:51;;;;;;;31.52;12.57;;;5.60;99.90;;;;;;4996945;28;20025;-84
2024/03/26 04:16:17;;;;;;;22.58;10.80;;;5.60;99.90;;;;;;5014322;28;20054;-81
2024/03/26 04:18:44;;;;;;;37.15;11.65;;;5.50;99.90;;;;;;5014343;28;20390;-82
2024/03/26 04:21:10;;;;;;;29.63;10.80;;;5.50;99.90;;;;;;5001799;28;20121;-81
2024/03/26 04:23:36;;;;;;;27.20;11.98;;;5.60;99.90;;;;;;5006604;28;20116;-80
2024/03/26 04:26:01;;;;;;;33.50;13.80;;;5.50;99.90;;;;;;5007602;28;20026;-84
2024/03/26 04:28:28;;;;;;;38.05;13.40;;;5.60;99.90;;;;;;5007314;28;20048;-84
2024/03/26 04:30:54;;;;;;;31.85;12.82;;;5.50;99.90;;;;;;5023629;28;20014;-82
2024/03/26 04:33:20;;;;;;;24.33;10.07;;;5.50;99.90;;;;;;5008119;28;20033;-82
2024/03/26 04:35:46;;;;;;;28.45;13.13;;;5.50;99.90;;;;;;5004812;28;20029;-83
2024/03/26 04:38:12;;;;;;;23.40;10.85;;;5.50;99.90;;;;;;5006847;28;20112;-83
2024/03/26 04:40:38;;;;;;;26.25;10.38;;;5.40;99.90;;;;;;5022055;28;20044;-82
2024/03/26 04:43:05;;;;;;;20.20;10.30;;;5.40;99.90;;;;;;5007078;28;20026;-84
2024/03/26 04:45:53;;;;;;;27.00;12.30;;;5.40;99.90;;;;;;5020205;28;20029;-83
2024/03/26 04:48:18;;;;;;;37.08;13.45;;;5.40;99.90;;;;;;5002713;28;20032;-82
2024/03/26 04:50:46;;;;;;;44.50;14.63;;;5.30;99.90;;;;;;5023145;28;20026;-82
2024/03/26 04:53:11;;;;;;;39.05;14.98;;;5.30;99.90;;;;;;5004547;28;20029;-81
2024/03/26 04:55:37;;;;;;;35.55;13.98;;;5.30;99.90;;;;;;5005701;28;20462;-82
2024/03/26 04:58:03;;;;;;;33.33;13.18;;;5.30;99.90;;;;;;5004800;28;20021;-82
2024/03/26 05:00:29;;;;;;;32.30;13.52;;;5.30;99.90;;;;;;5006416;28;20102;-82
2024/03/26 05:02:56;;;;;;;34.83;14.27;;;5.30;99.90;;;;;;5023278;28;20026;-85
2024/03/26 05:05:21;;;;;;;26.40;11.13;;;5.20;99.90;;;;;;5005059;28;20029;-82
2024/03/26 05:07:47;;;;;;;41.55;14.70;;;5.20;99.90;;;;;;5004226;28;20037;-82
2024/03/26 05:10:14;;;;;;;34.47;14.20;;;5.20;99.90;;;;;;5024896;28;20118;-81
2024/03/26 05:12:39;;;;;;;33.97;14.10;;;5.20;99.90;;;;;;5005192;28;20053;-85
2024/03/26 05:15:05;;;;;;;35.55;15.05;;;5.20;99.90;;;;;;5026689;28;20065;-86
2024/03/26 05:17:31;;;;;;;25.15;12.40;;;5.20;99.90;;;;;;5001139;28;20021;-82
2024/03/26 05:19:58;;;;;;;41.45;15.63;;;5.20;99.90;;;;;;5027247;28;20120;-82
2024/03/26 05:22:24;;;;;;;32.97;14.48;;;5.20;99.90;;;;;;5015283;28;20120;-84
2024/03/26 05:24:51;;;;;;;41.15;15.68;;;5.20;99.90;;;;;;5032745;28;20479;-83
2024/03/26 05:27:16;;;;;;;36.90;14.80;;;5.10;99.90;;;;;;5015101;28;20120;-83
2024/03/26 05:29:43;;;;;;;25.75;13.60;;;5.10;99.90;;;;;;5015058;28;20183;-84
2024/03/26 05:32:08;;;;;;;30.98;12.23;;;5.10;99.90;;;;;;5032828;28;20044;-82
2024/03/26 05:34:34;;;;;;;40.08;16.42;;;5.10;99.90;;;;;;5034479;28;20112;-81
2024/03/26 05:37:00;;;;;;;30.85;12.32;;;5.10;99.90;;;;;;5015117;28;20021;-81
2024/03/26 05:39:26;;;;;;;45.78;17.30;;;5.10;99.90;;;;;;5014879;28;20076;-81
2024/03/26 05:41:51;;;;;;;38.60;15.90;;;5.10;99.90;;;;;;5032431;28;20021;-81
2024/03/26 05:44:17;;;;;;;46.13;17.48;;;5.10;99.90;;;;;;5032322;28;20465;-82
2024/03/26 05:46:43;;;;;;;54.42;19.92;;;5.10;99.90;;;;;;5015660;28;20025;-84
2024/03/26 05:49:09;;;;;;;60.88;21.27;;;5.10;99.90;;;;;;5015074;28;20036;-85
2024/03/26 05:51:35;;;;;;;55.08;20.10;;;5.10;99.90;;;;;;5015220;28;20025;-83
2024/03/26 05:54:01;;;;;;;61.30;23.67;;;5.10;99.90;;;;;;5016161;28;20052;-82
2024/03/26 05:56:26;;;;;;;45.80;17.25;;;5.10;99.90;;;;;;5016033;28;20052;-84
2024/03/26 05:58:54;;;;;;;58.63;20.33;;;5.10;99.90;;;;;;5033234;28;20029;-82
2024/03/26 06:01:20;;;;;;;56.38;22.15;;;5.10;99.90;;;;;;5015645;28;20112;-81
2024/03/26 06:03:46;;;;;;;63.67;21.90;;;5.10;99.90;;;;;;5015160;28;20112;-81
2024/03/26 06:06:12;;;;;;;62.88;20.63;;;5.10;99.90;;;;;;5032970;28;20026;-84
2024/03/26 06:08:37;;;;;;;58.75;21.90;;;5.10;99.90;;;;;;5015192;28;20056;-82
2024/03/26 06:11:03;;;;;;;53.42;20.55;;;5.00;99.90;;;;;;5014450;28;20018;-82
2024/03/26 06:13:29;;;;;;;60.58;21.02;;;5.00;99.90;;;;;;5014632;28;20045;-81
2024/03/26 06:16:23;;;;;;;51.80;19.50;;;5.00;99.90;;;;;;5032341;28;20017;-81
2024/03/26 06:18:49;;;;;;;55.28;20.73;;;5.00;99.90;;;;;;4993528;28;20033;-81
2024/03/26 06:21:15;;;;;;;48.30;17.65;;;5.00;99.90;;;;;;5013823;28;20560;-81
2024/03/26 06:23:41;;;;;;;42.30;17.70;;;5.00;99.90;;;;;;5014865;28;20037;-82
2024/03/26 06:26:06;;;;;;;54.70;22.13;;;5.00;99.90;;;;;;5015107;28;20053;-83
2024/03/26 06:28:32;;;;;;;56.78;19.83;;;5.10;99.90;;;;;;5033241;28;20056;-82
2024/03/26 06:31:04;;;;;;;54.85;21.23;;;5.00;99.90;;;;;;5014997;28;20032;-81
2024/03/26 06:33:30;;;;;;;53.08;19.45;;;5.10;99.90;;;;;;5032694;28;20112;-80
2024/03/26 06:35:55;;;;;;;37.00;15.40;;;5.10;99.90;;;;;;5032333;28;20097;-81
2024/03/26 06:38:21;;;;;;;53.03;19.35;;;5.00;99.90;;;;;;5014625;28;20029;-84
2024/03/26 06:40:47;;;;;;;39.47;15.93;;;5.00;99.90;;;;;;5032375;28;20520;-82
2024/03/26 06:43:13;;;;;;;56.00;21.98;;;5.00;99.90;;;;;;5014779;28;20071;-81
2024/03/26 06:45:39;;;;;;;57.28;20.70;;;5.10;99.90;;;;;;5014681;28;20080;-81
2024/03/26 06:48:05;;;;;;;47.65;18.88;;;5.00;99.90;;;;;;5014543;28;20040;-83
2024/03/26 06:50:31;;;;;;;50.67;19.88;;;5.00;99.90;;;;;;5014705;28;20536;-81
2024/03/26 06:52:56;;;;;;;52.75;19.88;;;5.00;99.90;;;;;;5032221;28;20441;-81
2024/03/26 06:55:22;;;;;;;50.42;20.13;;;5.00;99.90;;;;;;5032150;28;20389;-82
2024/03/26 06:57:51;;;;;;;54.53;19.70;;;5.00;99.90;;;;;;5012026;28;20373;-83
2024/03/26 07:00:22;;;;;;;52.83;18.60;;;5.00;99.90;;;;;;5013975;28;20036;-81
2024/03/26 07:02:47;;;;;;;51.13;19.58;;;5.00;99.90;;;;;;5017132;28;20029;-83
2024/03/26 07:05:13;;;;;;;50.58;19.38;;;5.00;99.90;;;;;;5016927;28;20029;-82
2024/03/26 07:07:42;;;;;;;46.60;18.73;;;5.00;99.90;;;;;;5016599;28;20061;-81
2024/03/26 07:10:08;;;;;;;46.90;18.48;;;5.00;99.90;;;;;;5017111;28;20067;-81
2024/03/26 07:12:34;;;;;;;55.20;20.95;;;5.10;99.90;;;;;;5016910;28;20063;-83
2024/03/26 07:14:59;;;;;;;46.40;18.45;;;5.10;99.90;;;;;;5034736;28;20072;-83
2024/03/26 07:17:25;;;;;;;45.40;17.27;;;5.10;99.90;;;;;;5016951;28;20041;-82
2024/03/26 07:19:51;;;;;;;47.25;18.15;;;5.20;99.90;;;;;;5016426;28;20551;-82
2024/03/26 07:22:17;;;;;;;58.97;20.42;;;5.20;99.90;;;;;;5016577;28;20101;-82
2024/03/26 07:24:42;;;;;;;50.70;19.00;;;5.20;99.90;;;;;;5034701;28;20080;-83
2024/03/26 07:27:11;;;;;;;57.33;20.85;;;5.20;99.90;;;;;;5016681;28;20017;-82
2024/03/26 07:29:39;;;;;;;59.28;20.17;;;5.30;99.90;;;;;;5014190;28;20025;-82
2024/03/26 07:32:05;;;;;;;58.22;21.23;;;5.30;99.90;;;;;;5034347;28;20021;-82
2024/03/26 07:34:31;;;;;;;51.15;18.70;;;5.40;99.90;;;;;;5016360;28;20711;-82
2024/03/26 07:36:57;;;;;;;51.50;20.83;;;5.40;99.90;;;;;;5031815;28;20013;-83
2024/03/26 07:39:23;;;;;;;56.03;20.38;;;5.50;99.90;;;;;;5034198;28;20083;-81
2024/03/26 07:41:49;;;;;;;63.42;20.70;;;5.50;99.90;;;;;;5034002;28;20497;-80
2024/03/26 07:44:15;;;;;;;61.42;22.45;;;5.50;99.90;;;;;;5016158;28;20489;-81
2024/03/26 07:46:42;;;;;;;59.65;21.10;;;5.60;99.90;;;;;;5016463;28;20018;-80
2024/03/26 07:49:08;;;;;;;59.78;21.70;;;5.60;99.90;;;;;;5011712;28;20111;-81
2024/03/26 07:51:34;;;;;;;57.80;21.60;;;5.60;99.90;;;;;;5033374;28;20021;-83
2024/03/26 07:54:00;;;;;;;59.58;21.58;;;5.70;99.90;;;;;;5017656;28;20033;-84
2024/03/26 07:56:26;;;;;;;62.92;23.77;;;5.80;99.90;;;;;;5017615;28;20044;-84
2024/03/26 07:58:51;;;;;;;60.83;22.83;;;5.80;99.90;;;;;;5035450;28;20412;-82
2024/03/26 08:01:17;;;;;;;66.18;22.25;;;5.90;99.90;;;;;;5017968;28;20445;-82
2024/03/26 08:03:45;;;;;;;49.45;20.00;;;5.90;99.90;;;;;;5035416;28;20036;-82
2024/03/26 08:06:10;;;;;;;55.78;21.90;;;6.00;99.90;;;;;;5035371;28;20048;-84
2024/03/26 08:08:36;;;;;;;64.20;24.13;;;6.10;99.90;;;;;;5035111;28;20060;-83
2024/03/26 08:11:02;;;;;;;53.33;20.63;;;6.20;99.90;;;;;;5034785;28;20381;-85
2024/03/26 08:13:28;;;;;;;63.65;23.08;;;6.30;99.90;;;;;;5034387;28;20446;-82
2024/03/26 08:15:54;;;;;;;66.45;24.27;;;6.40;99.90;;;;;;5028884;28;20029;-83
2024/03/26 08:18:19;;;;;;;68.50;24.70;;;6.60;99.90;;;;;;4999284;28;20021;-84
2024/03/26 08:20:45;;;;;;;73.43;23.35;;;6.70;99.90;;;;;;4993534;28;20081;-80
2024/03/26 08:23:11;;;;;;;58.63;20.90;;;6.80;99.90;;;;;;5011853;28;20062;-80
2024/03/26 08:25:37;;;;;;;52.22;20.65;;;7.00;99.90;;;;;;4996500;28;20022;-83
2024/03/26 08:28:02;;;;;;;61.92;21.92;;;7.10;99.90;;;;;;5013679;28;20470;-83
2024/03/26 08:30:28;;;;;;;60.03;22.05;;;7.20;99.90;;;;;;4995686;28;20050;-81
2024/03/26 08:32:54;;;;;;;57.03;21.65;;;7.30;99.90;;;;;;4996022;28;20025;-85
2024/03/26 08:35:20;;;;;;;69.53;25.50;;;7.50;99.90;;;;;;4996045;28;20473;-83
2024/03/26 08:37:46;;;;;;;51.75;20.20;;;7.60;99.90;;;;;;5014177;28;20026;-85
2024/03/26 08:40:12;;;;;;;62.08;23.67;;;7.70;99.90;;;;;;4996438;28;20370;-85
2024/03/26 08:42:38;;;;;;;51.03;21.08;;;7.80;99.90;;;;;;4995898;28;20025;-82
2024/03/26 08:45:08;;;;;;;57.92;22.13;;;7.90;99.90;;;;;;4996275;28;20029;-84
2024/03/26 08:47:34;;;;;;;55.42;24.35;;;8.00;99.90;;;;;;4995590;28;20026;-85
2024/03/26 08:50:00;;;;;;;59.53;23.38;;;8.10;99.90;;;;;;4996208;28;20042;-82
2024/03/26 08:52:26;;;;;;;54.85;21.63;;;8.20;99.90;;;;;;5013062;28;20135;-81
2024/03/26 08:54:52;;;;;;;60.78;22.38;;;8.20;99.90;;;;;;5013330;28;20470;-84
2024/03/26 08:57:18;;;;;;;56.08;20.80;;;8.20;99.90;;;;;;4996254;28;20025;-83
2024/03/26 08:59:44;;;;;;;52.25;20.58;;;8.30;99.90;;;;;;4996137;28;20022;-82
2024/03/26 09:02:10;;;;;;;56.75;21.33;;;8.30;99.90;;;;;;4995396;28;20144;-83
2024/03/26 09:04:36;;;;;;;42.55;19.83;;;8.30;99.90;;;;;;5013398;28;20105;-84
2024/03/26 09:07:02;;;;;;;45.92;18.73;;;8.30;99.90;;;;;;4995139;28;20457;-84
2024/03/26 09:09:28;;;;;;;46.58;19.13;;;8.40;99.90;;;;;;4995970;28;20038;-80
2024/03/26 09:11:54;;;;;;;46.72;19.63;;;8.40;99.90;;;;;;5013431;28;20033;-83
2024/03/26 09:14:19;;;;;;;42.28;18.85;;;8.50;99.90;;;;;;4998743;28;20029;-84
2024/03/26 09:16:45;;;;;;;42.97;19.00;;;8.50;99.90;;;;;;4995929;28;20449;-82
2024/03/26 09:19:11;;;;;;;42.63;19.10;;;8.60;99.90;;;;;;5012824;28;20106;-82
2024/03/26 09:21:37;;;;;;;46.92;21.73;;;8.70;99.90;;;;;;5034309;28;20069;-82
2024/03/26 09:24:03;;;;;;;39.85;20.58;;;8.80;99.90;;;;;;5013882;28;20357;-85
2024/03/26 09:26:29;;;;;;;47.78;19.55;;;8.90;99.90;;;;;;5013890;28;20033;-80
2024/03/26 09:28:56;;;;;;;51.42;19.58;;;9.00;99.90;;;;;;5014877;28;20373;-79
2024/03/26 09:31:21;;;;;;;47.63;20.63;;;9.10;99.90;;;;;;5014732;28;20025;-82
2024/03/26 09:33:47;;;;;;;43.58;20.98;;;9.20;99.90;;;;;;5012918;28;20024;-85
2024/03/26 09:36:13;;;;;;;52.60;20.75;;;9.30;99.90;;;;;;5014481;28;20064;-80
2024/03/26 09:38:38;;;;;;;46.80;19.58;;;9.50;99.90;;;;;;5032030;28;20422;-84
2024/03/26 09:41:04;;;;;;;52.60;21.75;;;9.60;99.90;;;;;;5014694;28;20105;-84
2024/03/26 09:43:35;;;;;;;42.63;21.33;;;9.70;99.90;;;;;;5013912;28;20037;-82
2024/03/26 09:46:01;;;;;;;44.33;19.98;;;9.70;99.90;;;;;;5014001;28;20021;-80
2024/03/26 09:48:27;;;;;;;45.83;21.13;;;9.70;99.90;;;;;;5013988;28;20048;-80
2024/03/26 09:50:55;;;;;;;43.83;20.40;;;9.70;99.90;;;;;;5014116;28;20063;-81
2024/03/26 09:53:22;;;;;;;48.92;19.48;;;9.70;99.90;;;;;;5014515;28;20021;-85
2024/03/26 09:55:49;;;;;;;47.97;20.65;;;9.80;99.90;;;;;;5031749;28;20021;-81
2024/03/26 09:58:15;;;;;;;49.08;19.58;;;9.80;99.90;;;;;;5011036;28;20029;-80
2024/03/26 10:00:49;;;;;;;47.80;19.17;;;9.80;99.90;;;;;;5013504;28;20026;-81
2024/03/26 10:03:20;;;;;;;45.08;20.40;;;9.80;99.90;;;;;;5014343;28;20041;-82
2024/03/26 10:05:46;;;;;;;42.33;20.33;;;10.00;99.90;;;;;;5014456;28;20079;-85
2024/03/26 10:08:12;;;;;;;43.30;19.15;;;10.20;99.90;;;;;;5014445;28;20130;-83
2024/03/26 10:10:41;;;;;;;40.70;17.30;;;10.30;99.90;;;;;;5014809;28;20105;-84
2024/03/26 10:13:11;;;;;;;46.47;18.23;;;10.50;99.90;;;;;;5014554;28;20021;-78
2024/03/26 10:15:40;;;;;;;41.05;19.08;;;10.70;99.90;;;;;;5014460;28;20128;-79
2024/03/26 10:18:06;;;;;;;37.78;18.23;;;11.00;99.90;;;;;;5014413;28;20461;-81
2024/03/26 10:20:32;;;;;;;43.28;18.85;;;11.20;99.90;;;;;;5014029;28;20111;-79
2024/03/26 10:22:59;;;;;;;39.47;17.08;;;11.50;99.90;;;;;;5031677;28;20025;-79
2024/03/26 10:25:25;;;;;;;33.85;15.30;;;11.70;99.90;;;;;;5030833;28;20022;-86
2024/03/26 10:27:51;;;;;;;31.88;14.93;;;12.10;99.90;;;;;;5012621;28;20497;-86
2024/03/26 10:30:17;;;;;;;39.10;16.00;;;12.30;99.90;;;;;;5031441;28;20033;-86
2024/03/26 10:32:44;;;;;;;30.25;15.63;;;12.50;99.90;;;;;;5012748;28;20420;-80
2024/03/26 10:35:12;;;;;;;35.58;16.25;;;12.70;99.90;;;;;;5030260;28;20060;-83
2024/03/26 10:37:38;;;;;;;33.97;16.00;;;12.90;99.90;;;;;;5017240;28;20025;-84
2024/03/26 10:40:14;;;;;;;33.30;16.52;;;13.00;99.90;;;;;;5036358;28;20022;-84
2024/03/26 10:42:51;;;;;;;33.60;15.15;;;13.20;99.90;;;;;;5036105;28;20117;-83
2024/03/26 10:45:17;;;;;;;28.45;14.05;;;13.40;99.90;;;;;;5036114;28;20021;-81
2024/03/26 10:47:44;;;;;;;29.40;14.75;;;13.50;99.90;;;;;;5040369;28;20066;-83
2024/03/26 10:50:16;;;;;;;32.78;15.88;;;13.70;99.90;;;;;;5036045;28;20026;-82
2024/03/26 10:52:42;;;;;;;28.35;15.23;;;13.80;99.90;;;;;;5018017;28;20030;-83
2024/03/26 10:55:08;;;;;;;26.35;14.05;;;13.90;99.90;;;;;;5017580;28;20120;-82
2024/03/26 10:57:34;;;;;;;31.98;15.88;;;14.10;99.90;;;;;;5018272;28;20064;-81
2024/03/26 11:00:04;;;;;;;30.23;16.98;;;14.30;99.90;;;;;;5018152;28;20022;-84
2024/03/26 11:02:31;;;;;;;30.65;16.75;;;14.50;99.90;;;;;;5016710;28;20060;-84
2024/03/26 11:04:58;;;;;;;24.02;12.50;;;14.60;99.90;;;;;;5034085;28;20086;-84
2024/03/26 11:07:23;;;;;;;26.80;13.63;;;14.80;99.90;;;;;;5015762;28;20025;-84
2024/03/26 11:10:01;;;;;;;24.27;12.10;;;14.80;99.90;;;;;;5016431;28;20025;-85
2024/03/26 11:12:36;;;;;;;24.88;12.50;;;14.90;98.30;;;;;;5032341;28;20025;-84
2024/03/26 11:15:18;;;;;;;24.30;12.73;;;14.80;97.10;;;;;;5016306;28;20028;-81
2024/03/26 11:17:49;;;;;;;29.05;12.77;;;14.60;96.60;;;;;;5015568;28;20017;-84
2024/03/26 11:20:22;;;;;;;24.92;12.13;;;14.60;96.60;;;;;;5017960;28;20477;-84
2024/03/26 11:22:57;;;;;;;28.73;13.48;;;14.50;95.90;;;;;;5003917;28;20033;-84
2024/03/26 11:25:27;;;;;;;27.85;13.57;;;14.40;95.10;;;;;;5032795;28;20405;-84
2024/03/26 11:27:54;;;;;;;26.65;14.13;;;14.20;94.70;;;;;;5038024;28;20098;-83
2024/03/26 11:30:20;;;;;;;27.70;14.52;;;14.10;95.10;;;;;;5019886;28;20029;-83
2024/03/26 11:32:49;;;;;;;26.48;12.65;;;14.00;94.60;;;;;;5021144;28;20412;-83
2024/03/26 11:35:22;;;;;;;20.27;9.38;;;13.90;95.20;;;;;;5032582;28;20343;-84
2024/03/26 11:37:50;;;;;;;19.30;9.77;;;13.90;95.00;;;;;;5037818;28;20029;-85
2024/03/26 11:40:16;;;;;;;19.38;9.20;;;13.80;94.40;;;;;;5019560;28;20490;-85
2024/03/26 11:42:46;;;;;;;25.65;9.80;;;13.90;94.30;;;;;;5021770;28;20056;-84
2024/03/26 11:45:12;;;;;;;19.75;10.15;;;13.90;93.50;;;;;;5036618;28;20022;-85
2024/03/26 11:47:38;;;;;;;23.75;11.52;;;13.80;93.10;;;;;;5019656;28;20025;-84
2024/03/26 11:50:04;;;;;;;24.90;11.02;;;13.80;93.00;;;;;;5018379;28;20026;-84
2024/03/26 11:52:30;;;;;;;25.02;11.70;;;13.80;93.10;;;;;;5018084;28;20458;-84
2024/03/26 11:54:56;;;;;;;33.85;12.35;;;13.80;93.10;;;;;;5019324;28;20041;-85
2024/03/26 11:57:24;;;;;;;27.70;11.02;;;13.80;93.00;;;;;;5018880;28;20032;-84
2024/03/26 11:59:50;;;;;;;25.00;11.77;;;14.00;93.00;;;;;;5015438;28;20017;-85
2024/03/26 12:02:16;;;;;;;24.45;12.50;;;14.00;92.60;;;;;;5018470;28;20553;-85
2024/03/26 12:04:43;;;;;;;23.23;11.50;;;14.20;92.60;;;;;;5029522;28;20100;-80
2024/03/26 12:07:12;;;;;;;23.35;11.15;;;14.50;92.60;;;;;;4997765;28;20028;-81
2024/03/26 12:09:38;;;;;;;28.52;10.77;;;14.80;92.30;;;;;;5012177;28;20108;-84
2024/03/26 12:12:05;;;;;;;21.27;11.70;;;14.90;91.50;;;;;;4996226;28;20048;-80
2024/03/26 12:14:30;;;;;;;24.30;11.98;;;15.10;91.00;;;;;;5015084;28;20025;-85
2024/03/26 12:16:56;;;;;;;22.17;10.45;;;15.10;90.90;;;;;;4996316;28;20028;-82
2024/03/26 12:19:22;;;;;;;21.67;9.57;;;15.30;90.50;;;;;;5014694;28;20033;-82
2024/03/26 12:21:49;;;;;;;21.13;10.38;;;15.30;90.10;;;;;;4996914;28;20038;-79
2024/03/26 12:24:15;;;;;;;20.83;9.15;;;15.40;89.60;;;;;;5014057;28;20223;-83
2024/03/26 12:26:41;;;;;;;20.17;9.65;;;15.40;89.10;;;;;;5014247;28;20117;-84
2024/03/26 12:29:08;;;;;;;15.65;8.50;;;15.40;89.10;;;;;;4996054;28;20083;-82
2024/03/26 12:31:36;;;;;;;16.77;8.88;;;15.40;88.00;;;;;;4996517;28;20026;-84
2024/03/26 12:34:12;;;;;;;22.60;9.27;;;15.30;87.50;;;;;;4996941;28;20022;-81